• Join FlightAware (Why Join?)
  • Login
  • US Flag 
03:24AM EDT


 

Airport Tracker/Info


-or-


 

Live Flight TrackerFlight Track Log ✈ SWA3313 ✈ 05-May-2013 ✈ KBWI - KCLT

Flight Track Log - Related Links

Times and Time Zones

All times are in EDT time to prevent confusion due to time zone crossing. See the SWA3313 flight status page for this flight to view local times or setup timezone preferences in your user account.

Time Position Orientation Groundspeed Altitude Reporting Facility
EDT Latitude Longitude Course Direction KTS MPH feet Rate Location/Type
08:37PM 39.1333 -76.7000 211° Southwest 227 261 2,700  Level Potomac TRACON
08:39PM 39.1833 -76.7500 322° Northwest 240 276 5,200 2,520 Climbing Potomac TRACON
08:40PM 39.2000 -76.8500 282° West 284 327 7,800 2,760 Climbing Potomac TRACON
08:41PM 39.2167 -76.9500 282° West 296 341 10,800 2,700 Climbing Potomac TRACON
08:42PM 39.2167 -77.0833 270° West 353 406 13,200 2,580 Climbing Potomac TRACON
08:43PM 39.0435 -77.2754 211° Southwest  Level FlightAware Approximate
08:43PM 39.1667 -77.1833 237° Southwest 374 430 16,000  Level Potomac TRACON
08:44PM 39.0325 -77.3097 216° Southwest 403 464 20,300 2,520 Climbing Washington Center
08:45PM 38.9275 -77.3528 198° South 396 456 22,800 1,320 Climbing Washington Center
08:46PM 38.8147 -77.3767 189° South 402 463 23,000 60 Climbing Washington Center
08:47PM 38.7039 -77.4033 191° South 408 470 23,000 900 Level Washington Center
08:48PM 38.5925 -77.4564 200° South 413 475 24,900 1,800 Climbing Washington Center
08:49PM 38.4958 -77.5097 203° Southwest 424 488 26,700 1,800 Climbing Washington Center
08:50PM 38.3942 -77.6025 216° Southwest 441 507 28,600 1,860 Climbing Washington Center
08:51PM 38.3047 -77.7136 224° Southwest 441 507 30,500 2,100 Climbing Washington Center
08:52PM 38.2172 -77.8197 224° Southwest 441 507 32,800 1,200 Climbing Washington Center
08:53PM 38.1275 -77.9278 223° Southwest 446 513 33,000 60 Climbing Washington Center
08:54PM 38.0400 -78.0333 224° Southwest 440 506 33,000  Level Washington Center
08:55PM 37.9544 -78.1306 222° Southwest 430 495 33,000  Level Washington Center
08:56PM 37.8603 -78.2483 225° Southwest 424 488 33,000  Level Washington Center
08:57PM 37.7744 -78.3503 223° Southwest 429 494 33,000  Level Washington Center
08:58PM 37.6931 -78.4444 222° Southwest 438 504 33,000  Level Washington Center
08:59PM 37.6050 -78.5433 222° Southwest 438 504 33,000  Level Washington Center
09:00PM 37.5169 -78.6447 222° Southwest 433 498 33,000  Level Washington Center
09:01PM 37.4289 -78.7458 222° Southwest 433 498 33,000  Level Washington Center
09:02PM 37.3406 -78.8467 222° Southwest 433 498 33,000  Level Washington Center
09:03PM 37.2436 -78.9600 223° Southwest 433 498 33,000  Level Washington Center
09:04PM 37.1575 -79.0578 222° Southwest 433 498 33,000  Level Washington Center
09:05PM 37.0692 -79.1553 221° Southwest 433 498 33,000  Level Washington Center
09:06PM 36.9825 -79.2553 223° Southwest 428 493 33,000  Level Washington Center
09:07PM 36.8983 -79.3528 223° Southwest 433 498 33,000  Level Washington Center
09:08PM 36.8117 -79.4522 223° Southwest 433 498 33,000  Level Washington Center
09:09PM 36.7336 -79.5392 222° Southwest 433 498 33,000 -1,500 Level Washington Center
09:11PM 36.5664 -79.7247 222° Southwest 433 498 28,600 -2,280 Descending Atlanta Center
09:12PM 36.4861 -79.8144 222° Southwest 415 478 26,400 -2,220 Descending Atlanta Center
09:13PM 36.4036 -79.9064 222° Southwest 405 466 24,200 -2,160 Descending Atlanta Center
09:14PM 36.3275 -79.9928 222° Southwest 392 451 22,100 -1,140 Descending Atlanta Center
09:15PM 36.2342 -80.0747 215° Southwest 379 436 22,000 -480 Descending Atlanta Center
09:16PM 36.1508 -80.1456 214° Southwest 374 430 21,200 -1,620 Descending Atlanta Center
09:17PM 36.0633 -80.2167 213° Southwest 374 430 18,800 -2,340 Descending Atlanta Center
09:18PM 35.9967 -80.2814 218° Southwest 354 407 16,800 -2,340 Descending Atlanta Center
09:19PM 35.9275 -80.3383 214° Southwest 352 405 14,900 -2,100 Descending Atlanta Center
09:19PM 35.9050 -80.3572 214° Southwest 364 419 14,500 -1,440 Descending Atlanta Center
09:20PM 35.8442 -80.4114 216° Southwest 336 387 13,300 -960 Descending Atlanta Center
09:21PM 35.7769 -80.4681 214° Southwest 288 331 12,800 -960 Descending Atlanta Center
09:22PM 35.7139 -80.5219 215° Southwest 262 302 11,400 -1,440 Descending Atlanta Center
09:23PM 35.6525 -80.5706 213° Southwest 266 306 9,900 -1,140 Descending Atlanta Center
09:24PM 35.5792 -80.6325 214° Southwest 277 319 9,000 -420 Descending Atlanta Center
09:25PM 35.5261 -80.6756 213° Southwest 266 306 9,100  Climbing Atlanta Center
09:26PM 35.4608 -80.7267 213° Southwest 266 306 9,100  Level Atlanta Center
09:27PM 35.4039 -80.7800 217° Southwest 263 303 9,100  Level Atlanta Center
09:28PM 35.3322 -80.8361 213° Southwest 262 302 9,100  Level Atlanta Center
09:29PM 35.2633 -80.8389 182° South 238 274 9,100 -780 Level Atlanta Center
09:30PM 35.1964 -80.8311 175° South 241 277 7,600 -1,500 Descending Atlanta Center
09:31PM 35.1297 -80.8261 176° South 237 273 6,100 -1,440 Descending Atlanta Center
09:32PM 35.0669 -80.8211 176° South 237 273 4,900 -1,020 Descending Atlanta Center
09:33PM 35.0061 -80.8158 176° South 214 246 4,200 -420 Descending Atlanta Center
09:34PM 34.9561 -80.8128 177° South 190 219 4,100 -60 Descending Atlanta Center
09:35PM 34.9039 -80.8097 177° South 193 222 4,100  Level Atlanta Center
09:36PM 34.8633 -80.8592 225° Southwest 242 278 4,100  Level Atlanta Center
09:37PM 34.8939 -80.9114 306° West 227 261 4,100  Level Atlanta Center
09:38PM 34.9503 -80.9167 356° North 212 244 4,100  Level Atlanta Center
09:39PM 35.0111 -80.9222 356° North 214 246 4,100 -420 Level Atlanta Center
09:40PM 35.0717 -80.9250 358° North 217 250 3,300 -1,020 Descending Atlanta Center
09:41PM 35.1406 -80.9325 355° North 196 226 1,900 -960 Descending Atlanta Center
09:42PM 35.1803 -80.9361 356° North 138 159 1,200 -720 Descending Atlanta Center
09:44PM 35.2000 -80.9333 North  Level FlightAware Approximate
09:51PM 35.2137 -80.9491 North  Level Estimated